createdAt,value
2019-04-04T00:01:24.017Z,10
2019-04-04T00:06:26.976Z,10
2019-04-04T00:11:28.961Z,11
2019-04-04T00:16:31.398Z,10
2019-04-04T00:21:33.992Z,11
2019-04-04T00:26:36.231Z,11
2019-04-04T00:31:38.707Z,11
2019-04-04T00:36:41.166Z,12
2019-04-04T00:41:44.840Z,11
2019-04-04T00:46:45.966Z,11
2019-04-04T00:51:48.392Z,11
2019-04-04T00:56:50.873Z,12
2019-04-04T01:01:54.997Z,11
2019-04-04T01:06:55.733Z,11
2019-04-04T01:11:58.166Z,11
2019-04-04T01:17:02.019Z,11
2019-04-04T01:22:03.043Z,9
2019-04-04T01:27:06.199Z,11
2019-04-04T01:32:07.925Z,11
2019-04-04T01:37:10.359Z,12
2019-04-04T01:42:12.827Z,12
2019-04-04T01:47:16.924Z,12
2019-04-04T01:52:17.694Z,13
2019-04-04T01:57:20.343Z,11
2019-04-04T02:02:22.595Z,11
2019-04-04T02:07:25.083Z,12
2019-04-04T02:12:27.450Z,10
2019-04-04T02:17:29.882Z,13
2019-04-04T02:22:32.320Z,12
2019-04-04T02:27:37.492Z,13
2019-04-04T02:32:37.218Z,12
2019-04-04T02:37:39.861Z,12
2019-04-04T02:42:42.081Z,13
2019-04-04T02:47:44.536Z,13
2019-04-04T02:52:47.038Z,13
2019-04-04T02:57:49.524Z,12
2019-04-04T03:02:51.957Z,12
2019-04-04T03:07:54.392Z,13
2019-04-04T03:12:58.448Z,16
2019-04-04T03:17:59.203Z,18
2019-04-04T03:23:01.662Z,19
2019-04-04T03:28:04.073Z,18
2019-04-04T03:33:06.635Z,24
2019-04-04T03:38:10.648Z,25
2019-04-04T03:43:15.670Z,24
2019-04-04T03:48:16.737Z,23
2019-04-04T03:53:17.262Z,23
2019-04-04T03:58:18.704Z,25
2019-04-04T04:03:22.610Z,25
2019-04-04T04:08:23.565Z,22
2019-04-04T04:13:26.046Z,23
2019-04-04T04:18:28.453Z,22
2019-04-04T04:23:30.891Z,23
2019-04-04T04:28:33.323Z,24
2019-04-04T04:33:35.775Z,24
2019-04-04T04:38:38.206Z,23
2019-04-04T04:43:40.645Z,23
2019-04-04T04:48:43.088Z,24
2019-04-04T04:53:45.551Z,24
2019-04-04T04:58:47.968Z,23
2019-04-04T05:03:50.882Z,23
2019-04-04T05:08:52.999Z,24
2019-04-04T05:13:56.017Z,22
2019-04-04T05:18:57.761Z,21
2019-04-04T05:24:00.177Z,22
2019-04-04T05:29:02.611Z,23
2019-04-04T05:34:05.094Z,22
2019-04-04T05:44:10.406Z,22
2019-04-04T05:49:12.390Z,22
2019-04-04T05:54:14.837Z,13
2019-04-04T05:59:17.363Z,12
2019-04-04T06:04:20.247Z,13
2019-04-04T06:09:22.189Z,11
2019-04-04T06:14:24.584Z,11
2019-04-04T06:19:27.025Z,11
2019-04-04T06:24:29.500Z,10
2019-04-04T06:29:31.976Z,10
2019-04-04T06:34:34.354Z,9
2019-04-04T06:39:36.991Z,9
2019-04-04T06:44:39.243Z,8
2019-04-04T06:49:41.673Z,8
2019-04-04T06:54:44.127Z,8
2019-04-04T06:59:46.608Z,8
2019-04-04T07:04:48.984Z,8
2019-04-04T07:09:51.782Z,7
2019-04-04T07:14:53.937Z,7
2019-04-04T07:19:56.337Z,6
2019-04-04T07:25:01.043Z,6
2019-04-04T07:30:01.194Z,6
2019-04-04T07:35:03.622Z,6
2019-04-04T07:40:06.091Z,7
2019-04-04T07:45:08.591Z,6
2019-04-04T07:50:10.951Z,6
2019-04-04T07:55:13.685Z,7
2019-04-04T08:00:15.837Z,6
2019-04-04T08:05:18.273Z,6
2019-04-04T08:10:21.213Z,6
2019-04-04T08:15:23.153Z,6
2019-04-04T08:20:25.597Z,5
2019-04-04T08:25:28.656Z,5
2019-04-04T08:30:30.463Z,5
2019-04-04T08:35:32.932Z,5
2019-04-04T08:40:35.524Z,4
2019-04-04T08:45:37.782Z,5
2019-04-04T08:50:40.331Z,4
2019-04-04T09:00:45.124Z,4
2019-04-04T09:05:47.551Z,4
2019-04-04T09:10:50.037Z,3
2019-04-04T09:15:52.427Z,4
2019-04-04T09:20:54.873Z,4
2019-04-04T09:26:05.212Z,5
2019-04-04T09:30:59.777Z,4
2019-04-04T09:36:02.384Z,4
2019-04-04T09:41:04.697Z,4
2019-04-04T09:46:07.069Z,4
2019-04-04T09:56:11.961Z,4
2019-04-04T10:01:14.391Z,3
2019-04-04T10:06:16.836Z,3
2019-04-04T10:11:19.278Z,3
2019-04-04T10:16:21.835Z,3
2019-04-04T10:26:26.613Z,4
2019-04-04T10:31:29.099Z,4
2019-04-04T10:36:31.748Z,4
2019-04-04T10:41:33.950Z,5
2019-04-04T10:51:39.068Z,4
2019-04-04T10:56:41.675Z,4
2019-04-04T11:01:43.678Z,5
2019-04-04T11:06:46.315Z,4
2019-04-04T11:11:48.603Z,4
2019-04-04T11:16:51.017Z,4
2019-04-04T11:21:53.452Z,4
2019-04-04T11:26:55.880Z,5
2019-04-04T11:31:58.324Z,5
2019-04-04T11:37:00.818Z,5
2019-04-04T11:42:03.260Z,6
2019-04-04T11:47:05.636Z,6
2019-04-04T11:52:08.192Z,6
2019-04-04T11:57:10.524Z,7
2019-04-04T12:02:12.961Z,6
2019-04-04T12:07:15.475Z,6
2019-04-04T12:12:17.854Z,6
2019-04-04T12:17:20.396Z,7
2019-04-04T12:22:22.827Z,6
2019-04-04T12:27:25.169Z,6
2019-04-04T12:32:27.706Z,6
2019-04-04T12:37:30.144Z,6
2019-04-04T12:42:32.758Z,7
2019-04-04T12:47:34.976Z,6
2019-04-04T12:52:37.502Z,6
2019-04-04T12:57:40.074Z,6
2019-04-04T13:02:42.266Z,5
2019-04-04T13:12:47.247Z,5
2019-04-04T13:17:49.614Z,4
2019-04-04T13:22:52.104Z,5
2019-04-04T13:27:54.499Z,5
2019-04-04T13:32:56.933Z,5
2019-04-04T13:37:59.373Z,5
2019-04-04T13:43:01.852Z,4
2019-04-04T13:48:04.379Z,5
2019-04-04T13:53:06.760Z,4
2019-04-04T13:58:09.146Z,4
2019-04-04T14:03:11.594Z,3
2019-04-04T14:08:14.436Z,4
2019-04-04T14:13:16.448Z,3
2019-04-04T14:18:18.917Z,3
2019-04-04T14:23:21.974Z,4
2019-04-04T14:28:23.793Z,4
2019-04-04T14:33:26.231Z,3
2019-04-04T14:38:28.662Z,3
2019-04-04T14:43:31.131Z,4
2019-04-04T14:48:33.548Z,4
2019-04-04T14:53:36.029Z,4
2019-04-04T14:58:38.453Z,3
2019-04-04T15:03:42.265Z,3
2019-04-04T15:08:43.309Z,3
2019-04-04T15:13:45.872Z,3
2019-04-04T15:18:48.201Z,3
2019-04-04T15:23:50.802Z,3
2019-04-04T15:28:53.075Z,3
2019-04-04T15:33:55.533Z,3
2019-04-04T15:38:57.965Z,4
2019-04-04T15:44:00.432Z,4
2019-04-04T15:49:02.848Z,4
2019-04-04T15:54:05.340Z,4
2019-04-04T15:59:07.847Z,6
2019-04-04T16:04:10.315Z,4
2019-04-04T16:09:12.644Z,5
2019-04-04T16:14:15.045Z,4
2019-04-04T16:19:17.535Z,4
2019-04-04T16:24:20.004Z,4
2019-04-04T16:29:22.503Z,5
2019-04-04T16:34:25.029Z,5
2019-04-04T16:39:27.614Z,5
2019-04-04T16:44:29.711Z,6
2019-04-04T16:49:32.152Z,6
2019-04-04T16:54:34.594Z,5
2019-04-04T16:59:37.074Z,5
2019-04-04T17:04:39.536Z,5
2019-04-04T17:09:42.352Z,5
2019-04-04T17:14:44.548Z,6
2019-04-04T17:19:46.866Z,7
2019-04-04T17:24:49.272Z,7
2019-04-04T17:29:51.739Z,12
2019-04-04T17:34:54.152Z,7
2019-04-04T17:39:56.934Z,6
2019-04-04T17:45:01.130Z,6
2019-04-04T17:50:01.739Z,6
2019-04-04T17:55:03.973Z,7
2019-04-04T18:00:06.425Z,11
2019-04-04T18:05:08.826Z,7
2019-04-04T18:10:11.662Z,6
2019-04-04T18:15:13.679Z,7
2019-04-04T18:20:16.093Z,7
2019-04-04T18:25:18.535Z,6
2019-04-04T18:30:21.093Z,6
2019-04-04T18:35:23.417Z,6
2019-04-04T18:40:26.252Z,6
2019-04-04T18:45:28.390Z,5
2019-04-04T18:50:30.735Z,6
2019-04-04T18:55:33.321Z,6
2019-04-04T19:00:35.732Z,6
2019-04-04T19:05:38.082Z,5
2019-04-04T19:10:40.843Z,6
2019-04-04T19:15:42.948Z,5
2019-04-04T19:20:45.412Z,5
2019-04-04T19:25:47.858Z,5
2019-04-04T19:30:50.363Z,6
2019-04-04T19:35:52.759Z,6
2019-04-04T19:45:57.585Z,6
2019-04-04T19:51:00.026Z,6
2019-04-04T19:56:02.478Z,6
2019-04-04T20:01:04.920Z,6
2019-04-04T20:06:07.342Z,6
2019-04-04T20:11:09.779Z,6
2019-04-04T20:16:12.529Z,6
2019-04-04T20:21:14.705Z,6
2019-04-04T20:26:17.132Z,6
2019-04-04T20:31:19.645Z,7
2019-04-04T20:36:22.074Z,7
2019-04-04T20:41:24.806Z,6
2019-04-04T20:46:26.990Z,5
2019-04-04T20:51:29.333Z,6
2019-04-04T20:56:31.821Z,6
2019-04-04T21:01:34.416Z,6
2019-04-04T21:06:37.104Z,6
2019-04-04T21:11:39.405Z,6
2019-04-04T21:16:41.710Z,6
2019-04-04T21:21:43.955Z,8
2019-04-04T21:26:46.416Z,9
2019-04-04T21:31:48.930Z,16
2019-04-04T21:36:51.348Z,32
2019-04-04T21:41:53.747Z,39
2019-04-04T21:46:56.146Z,40
2019-04-04T21:51:58.597Z,43
2019-04-04T21:57:01.043Z,47
2019-04-04T22:02:03.517Z,45
2019-04-04T22:07:06.072Z,47
2019-04-04T22:17:10.831Z,48
2019-04-04T22:22:13.249Z,50
2019-04-04T22:27:15.661Z,49
2019-04-04T22:32:18.195Z,49
2019-04-04T22:37:20.617Z,47
2019-04-04T22:42:22.989Z,48
2019-04-04T22:47:25.445Z,50
2019-04-04T22:52:27.864Z,47
2019-04-04T22:57:30.354Z,46
2019-04-04T23:02:32.757Z,46
2019-04-04T23:07:36.619Z,49
2019-04-04T23:12:37.636Z,49
2019-04-04T23:17:40.070Z,50
2019-04-04T23:22:52.083Z,50
2019-04-04T23:27:44.956Z,48
2019-04-04T23:32:47.407Z,49
2019-04-04T23:37:49.932Z,48
2019-04-04T23:42:52.267Z,47
2019-04-04T23:47:54.728Z,47
2019-04-04T23:52:57.151Z,49
2019-04-04T23:57:59.594Z,48
